sensor_id;sensor_type;location;lat;lon;timestamp;P1;durP1;ratioP1;P2;durP2;ratioP2
70576;SDS011;58138;43.138;24.702;2022-08-07T00:01:06;6.88;;;6.18;;
70576;SDS011;58138;43.138;24.702;2022-08-07T00:03:32;6.85;;;6.05;;
70576;SDS011;58138;43.138;24.702;2022-08-07T00:05:58;6.60;;;5.95;;
70576;SDS011;58138;43.138;24.702;2022-08-07T00:08:23;7.35;;;5.88;;
70576;SDS011;58138;43.138;24.702;2022-08-07T00:10:49;6.88;;;6.03;;
70576;SDS011;58138;43.138;24.702;2022-08-07T00:13:16;7.25;;;6.18;;
70576;SDS011;58138;43.138;24.702;2022-08-07T00:15:42;6.53;;;6.00;;
70576;SDS011;58138;43.138;24.702;2022-08-07T00:18:08;6.97;;;6.28;;
70576;SDS011;58138;43.138;24.702;2022-08-07T00:20:34;6.65;;;6.00;;
70576;SDS011;58138;43.138;24.702;2022-08-07T00:23:00;9.32;;;5.70;;
70576;SDS011;58138;43.138;24.702;2022-08-07T00:25:26;8.30;;;6.32;;
70576;SDS011;58138;43.138;24.702;2022-08-07T00:27:52;10.57;;;6.07;;
70576;SDS011;58138;43.138;24.702;2022-08-07T00:30:17;7.45;;;5.72;;
70576;SDS011;58138;43.138;24.702;2022-08-07T00:32:45;6.43;;;5.82;;
70576;SDS011;58138;43.138;24.702;2022-08-07T00:35:12;7.50;;;6.50;;
70576;SDS011;58138;43.138;24.702;2022-08-07T00:37:37;7.07;;;6.38;;
70576;SDS011;58138;43.138;24.702;2022-08-07T00:40:03;9.68;;;6.72;;
70576;SDS011;58138;43.138;24.702;2022-08-07T00:42:28;7.10;;;6.40;;
70576;SDS011;58138;43.138;24.702;2022-08-07T00:44:54;10.50;;;6.85;;
70576;SDS011;58138;43.138;24.702;2022-08-07T00:47:19;7.25;;;6.65;;
70576;SDS011;58138;43.138;24.702;2022-08-07T00:49:45;7.70;;;6.68;;
70576;SDS011;58138;43.138;24.702;2022-08-07T00:52:10;7.43;;;6.72;;
70576;SDS011;58138;43.138;24.702;2022-08-07T00:54:36;8.20;;;6.53;;
70576;SDS011;58138;43.138;24.702;2022-08-07T00:57:01;8.00;;;6.72;;
70576;SDS011;58138;43.138;24.702;2022-08-07T00:59:29;9.90;;;7.00;;
70576;SDS011;58138;43.138;24.702;2022-08-07T01:01:55;7.38;;;6.63;;
70576;SDS011;58138;43.138;24.702;2022-08-07T01:04:20;9.75;;;7.10;;
70576;SDS011;58138;43.138;24.702;2022-08-07T01:06:46;7.93;;;6.70;;
70576;SDS011;58138;43.138;24.702;2022-08-07T01:09:11;10.50;;;6.45;;
70576;SDS011;58138;43.138;24.702;2022-08-07T01:11:37;7.43;;;6.65;;
70576;SDS011;58138;43.138;24.702;2022-08-07T01:14:04;7.63;;;6.90;;
70576;SDS011;58138;43.138;24.702;2022-08-07T01:16:29;7.70;;;6.72;;
70576;SDS011;58138;43.138;24.702;2022-08-07T01:18:55;7.22;;;6.53;;
70576;SDS011;58138;43.138;24.702;2022-08-07T01:21:21;8.32;;;7.47;;
70576;SDS011;58138;43.138;24.702;2022-08-07T01:23:49;8.88;;;6.80;;
70576;SDS011;58138;43.138;24.702;2022-08-07T01:26:16;7.70;;;6.72;;
70576;SDS011;58138;43.138;24.702;2022-08-07T01:28:46;7.53;;;6.80;;
70576;SDS011;58138;43.138;24.702;2022-08-07T01:31:12;8.60;;;7.55;;
70576;SDS011;58138;43.138;24.702;2022-08-07T01:33:38;7.80;;;6.80;;
70576;SDS011;58138;43.138;24.702;2022-08-07T01:36:04;8.73;;;7.20;;
70576;SDS011;58138;43.138;24.702;2022-08-07T01:38:33;11.13;;;7.40;;
70576;SDS011;58138;43.138;24.702;2022-08-07T01:41:00;10.52;;;7.88;;
70576;SDS011;58138;43.138;24.702;2022-08-07T01:43:27;9.95;;;7.85;;
70576;SDS011;58138;43.138;24.702;2022-08-07T01:45:53;7.95;;;7.07;;
70576;SDS011;58138;43.138;24.702;2022-08-07T01:48:19;8.27;;;7.03;;
70576;SDS011;58138;43.138;24.702;2022-08-07T01:50:46;14.25;;;8.45;;
70576;SDS011;58138;43.138;24.702;2022-08-07T01:53:14;10.75;;;7.78;;
70576;SDS011;58138;43.138;24.702;2022-08-07T01:55:43;10.23;;;7.68;;
70576;SDS011;58138;43.138;24.702;2022-08-07T01:58:10;8.60;;;7.80;;
70576;SDS011;58138;43.138;24.702;2022-08-07T02:00:38;8.45;;;7.18;;
70576;SDS011;58138;43.138;24.702;2022-08-07T02:03:10;12.25;;;7.60;;
70576;SDS011;58138;43.138;24.702;2022-08-07T02:05:39;9.90;;;7.35;;
70576;SDS011;58138;43.138;24.702;2022-08-07T02:08:11;9.65;;;7.20;;
70576;SDS011;58138;43.138;24.702;2022-08-07T02:10:39;8.00;;;7.25;;
70576;SDS011;58138;43.138;24.702;2022-08-07T02:13:05;9.98;;;6.95;;
70576;SDS011;58138;43.138;24.702;2022-08-07T02:15:31;9.10;;;7.00;;
70576;SDS011;58138;43.138;24.702;2022-08-07T02:17:58;8.65;;;7.75;;
70576;SDS011;58138;43.138;24.702;2022-08-07T02:20:24;8.15;;;7.35;;
70576;SDS011;58138;43.138;24.702;2022-08-07T02:22:55;10.60;;;7.07;;
70576;SDS011;58138;43.138;24.702;2022-08-07T02:25:32;8.30;;;7.50;;
70576;SDS011;58138;43.138;24.702;2022-08-07T02:27:59;10.60;;;7.38;;
70576;SDS011;58138;43.138;24.702;2022-08-07T02:30:26;8.45;;;7.65;;
70576;SDS011;58138;43.138;24.702;2022-08-07T02:32:52;8.35;;;7.60;;
70576;SDS011;58138;43.138;24.702;2022-08-07T02:35:18;8.70;;;7.80;;
70576;SDS011;58138;43.138;24.702;2022-08-07T02:37:44;8.68;;;7.53;;
70576;SDS011;58138;43.138;24.702;2022-08-07T02:40:11;10.98;;;7.78;;
70576;SDS011;58138;43.138;24.702;2022-08-07T02:42:37;8.73;;;7.53;;
70576;SDS011;58138;43.138;24.702;2022-08-07T02:45:04;9.18;;;7.68;;
70576;SDS011;58138;43.138;24.702;2022-08-07T02:47:30;8.48;;;7.47;;
70576;SDS011;58138;43.138;24.702;2022-08-07T02:49:56;8.10;;;7.30;;
70576;SDS011;58138;43.138;24.702;2022-08-07T02:52:40;8.80;;;7.78;;
70576;SDS011;58138;43.138;24.702;2022-08-07T02:55:11;9.00;;;7.38;;
70576;SDS011;58138;43.138;24.702;2022-08-07T02:57:39;8.60;;;7.70;;
70576;SDS011;58138;43.138;24.702;2022-08-07T03:00:06;8.52;;;6.82;;
70576;SDS011;58138;43.138;24.702;2022-08-07T03:02:34;9.25;;;7.88;;
70576;SDS011;58138;43.138;24.702;2022-08-07T03:05:01;9.35;;;8.05;;
70576;SDS011;58138;43.138;24.702;2022-08-07T03:07:28;9.02;;;8.23;;
70576;SDS011;58138;43.138;24.702;2022-08-07T03:09:55;10.93;;;8.15;;
70576;SDS011;58138;43.138;24.702;2022-08-07T03:12:20;8.85;;;7.95;;
70576;SDS011;58138;43.138;24.702;2022-08-07T03:14:46;8.60;;;7.72;;
70576;SDS011;58138;43.138;24.702;2022-08-07T03:17:12;10.02;;;7.90;;
70576;SDS011;58138;43.138;24.702;2022-08-07T03:19:38;8.50;;;7.53;;
70576;SDS011;58138;43.138;24.702;2022-08-07T03:22:04;13.10;;;8.32;;
70576;SDS011;58138;43.138;24.702;2022-08-07T03:24:30;12.05;;;9.25;;
70576;SDS011;58138;43.138;24.702;2022-08-07T03:27:00;11.40;;;8.63;;
70576;SDS011;58138;43.138;24.702;2022-08-07T03:29:28;9.82;;;8.82;;
70576;SDS011;58138;43.138;24.702;2022-08-07T03:31:59;10.32;;;9.27;;
70576;SDS011;58138;43.138;24.702;2022-08-07T03:34:27;10.75;;;9.20;;
70576;SDS011;58138;43.138;24.702;2022-08-07T03:36:53;12.02;;;10.23;;
70576;SDS011;58138;43.138;24.702;2022-08-07T03:39:19;15.07;;;11.48;;
70576;SDS011;58138;43.138;24.702;2022-08-07T03:41:45;15.68;;;10.57;;
70576;SDS011;58138;43.138;24.702;2022-08-07T03:44:11;11.75;;;9.77;;
70576;SDS011;58138;43.138;24.702;2022-08-07T03:46:37;9.80;;;8.88;;
70576;SDS011;58138;43.138;24.702;2022-08-07T03:49:06;11.38;;;8.55;;
70576;SDS011;58138;43.138;24.702;2022-08-07T03:51:32;10.15;;;9.25;;
70576;SDS011;58138;43.138;24.702;2022-08-07T03:53:58;9.40;;;8.40;;
70576;SDS011;58138;43.138;24.702;2022-08-07T03:56:24;9.95;;;8.88;;
70576;SDS011;58138;43.138;24.702;2022-08-07T03:58:50;10.50;;;8.57;;
70576;SDS011;58138;43.138;24.702;2022-08-07T04:01:16;14.20;;;8.73;;
70576;SDS011;58138;43.138;24.702;2022-08-07T04:03:42;9.77;;;8.60;;
70576;SDS011;58138;43.138;24.702;2022-08-07T04:06:08;9.80;;;8.75;;
70576;SDS011;58138;43.138;24.702;2022-08-07T04:08:35;11.60;;;8.88;;
70576;SDS011;58138;43.138;24.702;2022-08-07T04:11:01;10.02;;;8.50;;
70576;SDS011;58138;43.138;24.702;2022-08-07T04:13:26;8.55;;;7.75;;
70576;SDS011;58138;43.138;24.702;2022-08-07T04:15:52;11.23;;;7.85;;
70576;SDS011;58138;43.138;24.702;2022-08-07T04:18:17;8.73;;;7.85;;
70576;SDS011;58138;43.138;24.702;2022-08-07T04:20:43;7.93;;;7.10;;
70576;SDS011;58138;43.138;24.702;2022-08-07T04:23:09;11.43;;;8.68;;
70576;SDS011;58138;43.138;24.702;2022-08-07T04:25:35;10.10;;;8.07;;
70576;SDS011;58138;43.138;24.702;2022-08-07T04:28:07;14.75;;;10.00;;
70576;SDS011;58138;43.138;24.702;2022-08-07T04:30:34;11.13;;;8.55;;
70576;SDS011;58138;43.138;24.702;2022-08-07T04:33:00;8.93;;;8.02;;
70576;SDS011;58138;43.138;24.702;2022-08-07T04:35:33;8.60;;;7.70;;
70576;SDS011;58138;43.138;24.702;2022-08-07T04:37:59;9.18;;;8.20;;
70576;SDS011;58138;43.138;24.702;2022-08-07T04:40:24;14.02;;;9.93;;
70576;SDS011;58138;43.138;24.702;2022-08-07T04:42:50;9.88;;;8.73;;
70576;SDS011;58138;43.138;24.702;2022-08-07T04:45:15;10.48;;;8.43;;
70576;SDS011;58138;43.138;24.702;2022-08-07T04:50:16;13.30;;;7.97;;
70576;SDS011;58138;43.138;24.702;2022-08-07T05:00:40;10.60;;;7.80;;
70576;SDS011;58138;43.138;24.702;2022-08-07T05:05:42;10.77;;;8.25;;
70576;SDS011;58138;43.138;24.702;2022-08-07T05:08:14;9.60;;;7.63;;
70576;SDS011;58138;43.138;24.702;2022-08-07T05:10:44;12.30;;;7.80;;
70576;SDS011;58138;43.138;24.702;2022-08-07T05:13:14;9.18;;;8.18;;
70576;SDS011;58138;43.138;24.702;2022-08-07T05:15:41;8.60;;;7.70;;
70576;SDS011;58138;43.138;24.702;2022-08-07T05:18:19;9.38;;;7.57;;
70576;SDS011;58138;43.138;24.702;2022-08-07T05:20:55;11.07;;;7.55;;
70576;SDS011;58138;43.138;24.702;2022-08-07T05:23:26;10.90;;;8.13;;
70576;SDS011;58138;43.138;24.702;2022-08-07T05:25:57;10.15;;;8.60;;
70576;SDS011;58138;43.138;24.702;2022-08-07T05:28:23;10.02;;;8.50;;
70576;SDS011;58138;43.138;24.702;2022-08-07T05:30:50;8.80;;;7.90;;
70576;SDS011;58138;43.138;24.702;2022-08-07T05:33:17;10.18;;;8.68;;
70576;SDS011;58138;43.138;24.702;2022-08-07T05:35:43;9.52;;;8.45;;
70576;SDS011;58138;43.138;24.702;2022-08-07T05:38:09;9.55;;;8.30;;
70576;SDS011;58138;43.138;24.702;2022-08-07T05:40:36;9.30;;;8.40;;
70576;SDS011;58138;43.138;24.702;2022-08-07T05:43:02;10.35;;;9.38;;
70576;SDS011;58138;43.138;24.702;2022-08-07T05:45:28;11.07;;;9.18;;
70576;SDS011;58138;43.138;24.702;2022-08-07T05:47:54;16.25;;;9.45;;
70576;SDS011;58138;43.138;24.702;2022-08-07T05:50:20;10.15;;;9.10;;
70576;SDS011;58138;43.138;24.702;2022-08-07T05:52:45;17.27;;;10.60;;
70576;SDS011;58138;43.138;24.702;2022-08-07T05:55:11;14.10;;;10.10;;
70576;SDS011;58138;43.138;24.702;2022-08-07T05:57:37;15.88;;;9.80;;
70576;SDS011;58138;43.138;24.702;2022-08-07T06:00:03;14.85;;;10.00;;
70576;SDS011;58138;43.138;24.702;2022-08-07T06:02:31;15.45;;;10.18;;
70576;SDS011;58138;43.138;24.702;2022-08-07T06:05:02;16.30;;;10.13;;
70576;SDS011;58138;43.138;24.702;2022-08-07T06:07:30;14.60;;;10.52;;
70576;SDS011;58138;43.138;24.702;2022-08-07T06:09:57;11.55;;;10.35;;
70576;SDS011;58138;43.138;24.702;2022-08-07T06:12:23;13.25;;;9.80;;
70576;SDS011;58138;43.138;24.702;2022-08-07T06:14:48;16.23;;;10.40;;
70576;SDS011;58138;43.138;24.702;2022-08-07T06:17:14;14.35;;;10.27;;
70576;SDS011;58138;43.138;24.702;2022-08-07T06:19:39;14.20;;;11.60;;
70576;SDS011;58138;43.138;24.702;2022-08-07T06:22:05;14.93;;;10.02;;
70576;SDS011;58138;43.138;24.702;2022-08-07T06:24:31;16.58;;;12.13;;
70576;SDS011;58138;43.138;24.702;2022-08-07T06:26:57;12.82;;;8.98;;
70576;SDS011;58138;43.138;24.702;2022-08-07T06:29:26;15.77;;;9.93;;
70576;SDS011;58138;43.138;24.702;2022-08-07T06:31:52;15.65;;;9.93;;
70576;SDS011;58138;43.138;24.702;2022-08-07T06:34:18;13.23;;;8.68;;
70576;SDS011;58138;43.138;24.702;2022-08-07T06:36:43;12.32;;;9.13;;
70576;SDS011;58138;43.138;24.702;2022-08-07T06:39:09;12.80;;;9.15;;
70576;SDS011;58138;43.138;24.702;2022-08-07T06:41:39;12.82;;;9.68;;
70576;SDS011;58138;43.138;24.702;2022-08-07T06:44:06;14.93;;;9.30;;
70576;SDS011;58138;43.138;24.702;2022-08-07T06:46:35;11.25;;;8.60;;
70576;SDS011;58138;43.138;24.702;2022-08-07T06:49:01;12.60;;;9.00;;
70576;SDS011;58138;43.138;24.702;2022-08-07T06:51:28;17.38;;;10.20;;
70576;SDS011;58138;43.138;24.702;2022-08-07T06:53:56;9.88;;;8.52;;
70576;SDS011;58138;43.138;24.702;2022-08-07T06:59:19;9.50;;;8.52;;
70576;SDS011;58138;43.138;24.702;2022-08-07T07:01:46;12.18;;;9.35;;
70576;SDS011;58138;43.138;24.702;2022-08-07T07:04:12;11.00;;;8.57;;
70576;SDS011;58138;43.138;24.702;2022-08-07T07:06:38;11.38;;;8.70;;
70576;SDS011;58138;43.138;24.702;2022-08-07T07:14:31;15.13;;;8.82;;
70576;SDS011;58138;43.138;24.702;2022-08-07T07:17:02;11.23;;;8.57;;
70576;SDS011;58138;43.138;24.702;2022-08-07T07:19:38;12.27;;;8.27;;
70576;SDS011;58138;43.138;24.702;2022-08-07T07:22:13;12.10;;;8.38;;
70576;SDS011;58138;43.138;24.702;2022-08-07T07:24:39;14.23;;;9.15;;
70576;SDS011;58138;43.138;24.702;2022-08-07T07:27:06;9.45;;;8.40;;
70576;SDS011;58138;43.138;24.702;2022-08-07T07:29:33;14.48;;;8.95;;
70576;SDS011;58138;43.138;24.702;2022-08-07T07:32:02;9.82;;;8.43;;
70576;SDS011;58138;43.138;24.702;2022-08-07T07:34:31;9.77;;;8.77;;
70576;SDS011;58138;43.138;24.702;2022-08-07T07:36:57;11.00;;;8.90;;
70576;SDS011;58138;43.138;24.702;2022-08-07T07:39:24;11.45;;;8.40;;
70576;SDS011;58138;43.138;24.702;2022-08-07T07:41:50;11.65;;;8.57;;
70576;SDS011;58138;43.138;24.702;2022-08-07T07:44:17;11.15;;;8.98;;
70576;SDS011;58138;43.138;24.702;2022-08-07T07:46:43;12.38;;;8.57;;
70576;SDS011;58138;43.138;24.702;2022-08-07T07:49:10;10.95;;;8.73;;
70576;SDS011;58138;43.138;24.702;2022-08-07T07:51:39;9.75;;;8.50;;
70576;SDS011;58138;43.138;24.702;2022-08-07T07:54:06;10.70;;;8.38;;
70576;SDS011;58138;43.138;24.702;2022-08-07T07:56:32;10.88;;;8.15;;
70576;SDS011;58138;43.138;24.702;2022-08-07T07:59:01;11.73;;;8.48;;
70576;SDS011;58138;43.138;24.702;2022-08-07T08:01:32;13.82;;;7.50;;
70576;SDS011;58138;43.138;24.702;2022-08-07T08:03:59;9.75;;;7.85;;
70576;SDS011;58138;43.138;24.702;2022-08-07T08:06:28;11.13;;;8.30;;
70576;SDS011;58138;43.138;24.702;2022-08-07T08:08:54;9.18;;;7.70;;
70576;SDS011;58138;43.138;24.702;2022-08-07T08:11:20;9.93;;;8.07;;
70576;SDS011;58138;43.138;24.702;2022-08-07T08:13:47;9.65;;;7.88;;
70576;SDS011;58138;43.138;24.702;2022-08-07T08:16:17;9.13;;;7.35;;
70576;SDS011;58138;43.138;24.702;2022-08-07T08:18:44;8.32;;;7.50;;
70576;SDS011;58138;43.138;24.702;2022-08-07T08:21:15;8.43;;;7.05;;
70576;SDS011;58138;43.138;24.702;2022-08-07T08:24:01;7.97;;;6.70;;
70576;SDS011;58138;43.138;24.702;2022-08-07T08:26:45;7.30;;;6.68;;
70576;SDS011;58138;43.138;24.702;2022-08-07T08:29:29;8.02;;;6.45;;
70576;SDS011;58138;43.138;24.702;2022-08-07T08:32:25;9.13;;;6.57;;
70576;SDS011;58138;43.138;24.702;2022-08-07T08:34:53;10.75;;;6.82;;
70576;SDS011;58138;43.138;24.702;2022-08-07T08:37:21;7.00;;;6.40;;
70576;SDS011;58138;43.138;24.702;2022-08-07T08:39:47;9.57;;;6.90;;
70576;SDS011;58138;43.138;24.702;2022-08-07T08:42:25;7.97;;;5.88;;
70576;SDS011;58138;43.138;24.702;2022-08-07T08:45:11;9.82;;;6.20;;
70576;SDS011;58138;43.138;24.702;2022-08-07T08:53:35;24.23;;;7.68;;
70576;SDS011;58138;43.138;24.702;2022-08-07T08:56:07;10.50;;;7.45;;
70576;SDS011;58138;43.138;24.702;2022-08-07T08:58:36;15.20;;;8.90;;
70576;SDS011;58138;43.138;24.702;2022-08-07T09:01:30;12.23;;;8.80;;
70576;SDS011;58138;43.138;24.702;2022-08-07T09:04:06;15.35;;;9.27;;
70576;SDS011;58138;43.138;24.702;2022-08-07T09:06:39;12.88;;;7.40;;
70576;SDS011;58138;43.138;24.702;2022-08-07T09:09:34;8.98;;;7.18;;
70576;SDS011;58138;43.138;24.702;2022-08-07T09:18:20;11.95;;;8.13;;
70576;SDS011;58138;43.138;24.702;2022-08-07T09:38:05;13.50;;;11.15;;
70576;SDS011;58138;43.138;24.702;2022-08-07T09:54:40;14.27;;;10.88;;
70576;SDS011;58138;43.138;24.702;2022-08-07T10:01:00;15.05;;;10.00;;
70576;SDS011;58138;43.138;24.702;2022-08-07T10:03:50;11.38;;;10.18;;
70576;SDS011;58138;43.138;24.702;2022-08-07T10:17:57;31.73;;;10.40;;
70576;SDS011;58138;43.138;24.702;2022-08-07T10:20:51;12.85;;;8.98;;
70576;SDS011;58138;43.138;24.702;2022-08-07T10:26:28;10.55;;;8.63;;
70576;SDS011;58138;43.138;24.702;2022-08-07T10:29:36;12.18;;;8.88;;
70576;SDS011;58138;43.138;24.702;2022-08-07T10:40:55;10.57;;;8.45;;
70576;SDS011;58138;43.138;24.702;2022-08-07T10:43:39;13.95;;;9.02;;
70576;SDS011;58138;43.138;24.702;2022-08-07T10:46:22;10.57;;;8.73;;
70576;SDS011;58138;43.138;24.702;2022-08-07T10:49:09;11.40;;;9.23;;
70576;SDS011;58138;43.138;24.702;2022-08-07T10:51:50;10.07;;;8.27;;
70576;SDS011;58138;43.138;24.702;2022-08-07T10:57:05;9.38;;;7.70;;
70576;SDS011;58138;43.138;24.702;2022-08-07T10:59:46;9.65;;;7.40;;
70576;SDS011;58138;43.138;24.702;2022-08-07T11:05:41;11.43;;;7.57;;
70576;SDS011;58138;43.138;24.702;2022-08-07T11:11:02;9.27;;;7.05;;
70576;SDS011;58138;43.138;24.702;2022-08-07T11:16:10;7.47;;;6.78;;
70576;SDS011;58138;43.138;24.702;2022-08-07T11:18:42;7.63;;;6.88;;
70576;SDS011;58138;43.138;24.702;2022-08-07T11:21:28;7.97;;;6.93;;
70576;SDS011;58138;43.138;24.702;2022-08-07T11:24:13;9.57;;;7.10;;
70576;SDS011;58138;43.138;24.702;2022-08-07T11:26:50;8.48;;;7.40;;
70576;SDS011;58138;43.138;24.702;2022-08-07T11:34:46;19.70;;;8.20;;
70576;SDS011;58138;43.138;24.702;2022-08-07T11:43:13;11.27;;;8.27;;
70576;SDS011;58138;43.138;24.702;2022-08-07T11:45:57;8.75;;;7.43;;
70576;SDS011;58138;43.138;24.702;2022-08-07T11:49:10;9.50;;;7.85;;
70576;SDS011;58138;43.138;24.702;2022-08-07T11:54:17;8.43;;;7.22;;
70576;SDS011;58138;43.138;24.702;2022-08-07T12:00:03;9.23;;;6.60;;
70576;SDS011;58138;43.138;24.702;2022-08-07T12:08:10;8.07;;;6.22;;
70576;SDS011;58138;43.138;24.702;2022-08-07T12:11:03;7.10;;;6.40;;
70576;SDS011;58138;43.138;24.702;2022-08-07T12:16:15;11.68;;;6.50;;
70576;SDS011;58138;43.138;24.702;2022-08-07T12:18:47;6.88;;;6.00;;
70576;SDS011;58138;43.138;24.702;2022-08-07T12:21:39;7.25;;;6.07;;
70576;SDS011;58138;43.138;24.702;2022-08-07T12:24:09;6.43;;;5.63;;
70576;SDS011;58138;43.138;24.702;2022-08-07T12:29:08;5.90;;;5.35;;
70576;SDS011;58138;43.138;24.702;2022-08-07T12:34:32;5.45;;;4.95;;
70576;SDS011;58138;43.138;24.702;2022-08-07T12:37:00;7.78;;;5.38;;
70576;SDS011;58138;43.138;24.702;2022-08-07T12:39:27;5.20;;;4.70;;
70576;SDS011;58138;43.138;24.702;2022-08-07T12:41:54;5.22;;;4.72;;
70576;SDS011;58138;43.138;24.702;2022-08-07T12:44:20;6.53;;;5.93;;
70576;SDS011;58138;43.138;24.702;2022-08-07T12:46:54;6.55;;;4.90;;
70576;SDS011;58138;43.138;24.702;2022-08-07T12:52:15;6.53;;;5.93;;
70576;SDS011;58138;43.138;24.702;2022-08-07T12:54:53;7.80;;;4.88;;
70576;SDS011;58138;43.138;24.702;2022-08-07T12:57:24;7.10;;;5.30;;
70576;SDS011;58138;43.138;24.702;2022-08-07T12:59:53;6.78;;;6.18;;
70576;SDS011;58138;43.138;24.702;2022-08-07T13:05:01;6.40;;;5.15;;
70576;SDS011;58138;43.138;24.702;2022-08-07T13:10:37;11.57;;;5.03;;
70576;SDS011;58138;43.138;24.702;2022-08-07T13:18:49;5.90;;;5.40;;
70576;SDS011;58138;43.138;24.702;2022-08-07T13:21:26;6.50;;;5.40;;
70576;SDS011;58138;43.138;24.702;2022-08-07T13:29:56;9.02;;;6.28;;
70576;SDS011;58138;43.138;24.702;2022-08-07T13:38:04;5.85;;;5.35;;
70576;SDS011;58138;43.138;24.702;2022-08-07T13:40:56;5.30;;;4.78;;
70576;SDS011;58138;43.138;24.702;2022-08-07T13:43:42;5.80;;;5.05;;
70576;SDS011;58138;43.138;24.702;2022-08-07T13:46:09;5.35;;;4.85;;
70576;SDS011;58138;43.138;24.702;2022-08-07T13:48:37;5.72;;;4.38;;
70576;SDS011;58138;43.138;24.702;2022-08-07T13:51:03;11.98;;;8.68;;
70576;SDS011;58138;43.138;24.702;2022-08-07T13:53:32;4.97;;;4.57;;
70576;SDS011;58138;43.138;24.702;2022-08-07T13:56:02;8.60;;;4.78;;
70576;SDS011;58138;43.138;24.702;2022-08-07T13:58:29;6.90;;;5.00;;
70576;SDS011;58138;43.138;24.702;2022-08-07T14:01:19;5.23;;;4.50;;
70576;SDS011;58138;43.138;24.702;2022-08-07T14:03:46;4.93;;;4.53;;
70576;SDS011;58138;43.138;24.702;2022-08-07T14:06:12;4.65;;;4.25;;
70576;SDS011;58138;43.138;24.702;2022-08-07T14:08:38;4.93;;;4.38;;
70576;SDS011;58138;43.138;24.702;2022-08-07T14:11:08;7.25;;;4.97;;
70576;SDS011;58138;43.138;24.702;2022-08-07T14:13:37;5.60;;;5.07;;
70576;SDS011;58138;43.138;24.702;2022-08-07T14:16:05;6.47;;;5.03;;
70576;SDS011;58138;43.138;24.702;2022-08-07T14:18:43;7.63;;;5.00;;
70576;SDS011;58138;43.138;24.702;2022-08-07T14:23:45;7.97;;;4.50;;
70576;SDS011;58138;43.138;24.702;2022-08-07T14:26:14;6.00;;;4.57;;
70576;SDS011;58138;43.138;24.702;2022-08-07T14:28:44;5.70;;;5.10;;
70576;SDS011;58138;43.138;24.702;2022-08-07T14:31:10;7.15;;;5.50;;
70576;SDS011;58138;43.138;24.702;2022-08-07T14:33:37;6.97;;;5.00;;
70576;SDS011;58138;43.138;24.702;2022-08-07T14:36:03;6.80;;;4.10;;
70576;SDS011;58138;43.138;24.702;2022-08-07T14:38:31;8.85;;;4.55;;
70576;SDS011;58138;43.138;24.702;2022-08-07T14:40:58;6.65;;;4.50;;
70576;SDS011;58138;43.138;24.702;2022-08-07T14:43:29;7.93;;;4.47;;
70576;SDS011;58138;43.138;24.702;2022-08-07T14:46:07;8.80;;;5.47;;
70576;SDS011;58138;43.138;24.702;2022-08-07T14:48:35;6.68;;;4.38;;
70576;SDS011;58138;43.138;24.702;2022-08-07T14:51:04;8.48;;;6.30;;
70576;SDS011;58138;43.138;24.702;2022-08-07T14:53:32;7.30;;;4.28;;
70576;SDS011;58138;43.138;24.702;2022-08-07T14:56:02;8.23;;;4.78;;
70576;SDS011;58138;43.138;24.702;2022-08-07T14:58:30;15.05;;;4.72;;
70576;SDS011;58138;43.138;24.702;2022-08-07T15:00:58;16.95;;;5.75;;
70576;SDS011;58138;43.138;24.702;2022-08-07T15:03:25;10.15;;;5.55;;
70576;SDS011;58138;43.138;24.702;2022-08-07T15:05:51;10.05;;;6.22;;
70576;SDS011;58138;43.138;24.702;2022-08-07T15:08:28;9.82;;;6.13;;
70576;SDS011;58138;43.138;24.702;2022-08-07T15:10:59;13.43;;;8.13;;
70576;SDS011;58138;43.138;24.702;2022-08-07T15:13:30;11.32;;;8.02;;
70576;SDS011;58138;43.138;24.702;2022-08-07T15:16:05;12.05;;;8.25;;
70576;SDS011;58138;43.138;24.702;2022-08-07T15:18:34;7.72;;;5.45;;
70576;SDS011;58138;43.138;24.702;2022-08-07T15:21:03;8.45;;;5.85;;
70576;SDS011;58138;43.138;24.702;2022-08-07T15:23:31;11.70;;;8.23;;
70576;SDS011;58138;43.138;24.702;2022-08-07T15:25:58;9.20;;;8.27;;
70576;SDS011;58138;43.138;24.702;2022-08-07T15:28:26;11.02;;;8.05;;
70576;SDS011;58138;43.138;24.702;2022-08-07T15:30:54;7.75;;;6.07;;
70576;SDS011;58138;43.138;24.702;2022-08-07T15:33:23;8.93;;;7.97;;
70576;SDS011;58138;43.138;24.702;2022-08-07T15:35:50;10.90;;;8.02;;
70576;SDS011;58138;43.138;24.702;2022-08-07T15:38:16;7.75;;;6.60;;
70576;SDS011;58138;43.138;24.702;2022-08-07T15:40:44;7.32;;;6.68;;
70576;SDS011;58138;43.138;24.702;2022-08-07T15:43:13;8.10;;;6.07;;
70576;SDS011;58138;43.138;24.702;2022-08-07T15:45:41;7.10;;;5.97;;
70576;SDS011;58138;43.138;24.702;2022-08-07T15:51:05;5.82;;;5.32;;
70576;SDS011;58138;43.138;24.702;2022-08-07T15:53:34;9.75;;;7.40;;
70576;SDS011;58138;43.138;24.702;2022-08-07T15:56:03;6.55;;;5.85;;
70576;SDS011;58138;43.138;24.702;2022-08-07T15:58:54;6.50;;;5.90;;
70576;SDS011;58138;43.138;24.702;2022-08-07T16:01:26;6.70;;;5.40;;
70576;SDS011;58138;43.138;24.702;2022-08-07T16:03:55;8.88;;;7.22;;
70576;SDS011;58138;43.138;24.702;2022-08-07T16:07:10;11.07;;;7.72;;
70576;SDS011;58138;43.138;24.702;2022-08-07T16:09:35;10.48;;;8.70;;
70576;SDS011;58138;43.138;24.702;2022-08-07T16:23:33;10.20;;;8.48;;
70576;SDS011;58138;43.138;24.702;2022-08-07T16:28:51;6.00;;;3.72;;
70576;SDS011;58138;43.138;24.702;2022-08-07T16:33:48;9.50;;;8.13;;
70576;SDS011;58138;43.138;24.702;2022-08-07T16:39:18;8.57;;;7.45;;
70576;SDS011;58138;43.138;24.702;2022-08-07T16:44:47;8.02;;;6.90;;
70576;SDS011;58138;43.138;24.702;2022-08-07T16:55:31;8.60;;;7.80;;
70576;SDS011;58138;43.138;24.702;2022-08-07T17:03:23;11.18;;;9.15;;
70576;SDS011;58138;43.138;24.702;2022-08-07T17:11:31;12.55;;;10.25;;
70576;SDS011;58138;43.138;24.702;2022-08-07T17:14:09;12.45;;;10.75;;
70576;SDS011;58138;43.138;24.702;2022-08-07T17:16:48;13.18;;;10.93;;
70576;SDS011;58138;43.138;24.702;2022-08-07T17:19:32;11.98;;;9.57;;
70576;SDS011;58138;43.138;24.702;2022-08-07T17:22:14;9.60;;;8.40;;
70576;SDS011;58138;43.138;24.702;2022-08-07T17:27:38;11.38;;;10.10;;
70576;SDS011;58138;43.138;24.702;2022-08-07T17:30:10;12.85;;;9.98;;
70576;SDS011;58138;43.138;24.702;2022-08-07T17:35:26;11.35;;;8.18;;
70576;SDS011;58138;43.138;24.702;2022-08-07T17:38:08;11.45;;;9.48;;
70576;SDS011;58138;43.138;24.702;2022-08-07T17:43:39;12.13;;;10.60;;
70576;SDS011;58138;43.138;24.702;2022-08-07T17:48:58;11.93;;;9.57;;
70576;SDS011;58138;43.138;24.702;2022-08-07T17:51:36;10.82;;;9.32;;
70576;SDS011;58138;43.138;24.702;2022-08-07T17:56:33;13.07;;;9.90;;
70576;SDS011;58138;43.138;24.702;2022-08-07T17:59:02;11.98;;;10.18;;
70576;SDS011;58138;43.138;24.702;2022-08-07T18:01:44;12.10;;;9.23;;
70576;SDS011;58138;43.138;24.702;2022-08-07T18:09:37;10.35;;;9.27;;
70576;SDS011;58138;43.138;24.702;2022-08-07T18:12:13;9.95;;;8.98;;
70576;SDS011;58138;43.138;24.702;2022-08-07T18:14:44;10.75;;;8.98;;
70576;SDS011;58138;43.138;24.702;2022-08-07T18:19:57;10.70;;;9.18;;
70576;SDS011;58138;43.138;24.702;2022-08-07T18:22:29;11.32;;;9.00;;
70576;SDS011;58138;43.138;24.702;2022-08-07T18:25:20;9.23;;;8.32;;
70576;SDS011;58138;43.138;24.702;2022-08-07T18:28:03;15.80;;;13.43;;
70576;SDS011;58138;43.138;24.702;2022-08-07T18:45:44;15.73;;;10.80;;
70576;SDS011;58138;43.138;24.702;2022-08-07T18:47:55;13.48;;;9.05;;
70576;SDS011;58138;43.138;24.702;2022-08-07T18:55:36;11.45;;;10.27;;